Terminal Aerodrome Forecast
Issued by NWS Jacksonville, FL

Home | Current Version | Previous Version | Text Only | Print | Product List | Glossary On
Versions: 1 2 3 4 5 6 7 8 9 10 11 12 13 14 15 16 17 18 19 20 21 22 23 24 25 26 27 28 29 30
874
FTUS42 KJAX 070520
TAFJAX
TAF
KJAX 070520Z 0706/0806 33011G17KT 3SM -RA BR BKN008 OVC015
      TEMPO 0709/0713 SCT008 OVC015
     FM071300 32013G23KT P6SM VCSH SCT009 OVC016
     FM071600 32014G24KT P6SM SCT015 BKN025
     FM071800 31016G26KT P6SM SCT040
     FM072300 29008KT P6SM SKC=

USA.gov is the U.S. government's official web portal to all federal, state and local government web resources and services.